• Join FlightAware (Why Join?)
  • Login
  • US Flag 
08:31AM EDT


 

Airport Tracker/Info


-or-


 

Live Flight TrackerFlight Track Log ✈ N42HN ✈ 30-Jan-2014 ✈ CYOW - CYUL

Flight Track Log - Related Links

Times and Time Zones

All times are in EST time to prevent confusion due to time zone crossing. See the N42HN flight status page for this flight to view local times or setup timezone preferences in your user account.

Time Position Orientation Groundspeed Altitude Reporting Facility
EST Latitude Longitude Course Direction KTS MPH feet Rate Location/Type
12:42PM 45.2833 -75.7000 98° East 190 219 4,600  Level Montreal Center
12:43PM 45.2500 -75.7500 227° Southwest 210 242 9,200 3,180 Climbing Montreal Center
12:44PM 45.1833 -75.7333 170° South 330 380 11,000 900 Climbing Montreal Center
12:45PM 45.1833 -75.5833 90° East 370 426 11,000  Level Montreal Center
12:46PM 45.1667 -75.4167 98° East 380 437 11,000  Level Montreal Center
12:47PM 45.1667 -75.2833 90° East 390 449 11,000  Level Montreal Center
12:48PM 45.2486 -74.9005 98° East  Level FlightAware Approximate
12:48PM 45.1667 -75.1333 90° East 390 449 11,000  Level Montreal Center
12:49PM 45.1500 -74.9667 98° East 410 472 11,000  Level Montreal Center
12:50PM 45.1667 -74.8333 80° East 390 449 11,000  Level Montreal Center
12:51PM 45.1833 -74.6667 82° East 390 449 11,000  Level Montreal Center
12:52PM 45.1833 -74.5167 90° East 380 437 11,000  Level Montreal Center
12:53PM 45.2167 -74.3500 74° East 390 449 11,000  Level Montreal Center
12:54PM 45.2833 -74.2333 51° Northeast 390 449 11,000 -300 Level Montreal Center
12:55PM 45.3333 -74.1167 59° Northeast 380 437 10,400 -960 Descending Montreal Center
12:56PM 45.3667 -73.9833 70° East 320 368 9,100 -1,200 Descending Montreal Center
12:57PM 45.4500 -73.9167 29° Northeast 310 357 8,000 -900 Descending Montreal Center
12:58PM 45.5000 -73.8333 49° Northeast 290 334 7,400 -1,260 Descending Montreal Center
12:59PM 45.5667 -73.7667 35° Northeast 290 334 5,500 -1,500 Descending Montreal Center
01:00PM 45.6333 -73.6833 41° Northeast 270 311 4,400 -900 Descending Montreal Center
01:01PM 45.6500 -73.6167 70° East 230 265 3,800 -720 Descending Montreal Center
01:02PM 45.6167 -73.5500 126° Southeast 190 219 3,000 -420 Descending Montreal Center
01:03PM 45.5667 -73.5667 193° South 180 207 3,000 -540 Level Montreal Center
01:04PM 45.5333 -73.6167 226° Southwest 170 196 2,000 -900 Descending Montreal Center
01:05PM 45.5000 -73.6500 215° Southwest 140 161 1,300 -720 Descending Montreal Center
01:06PM 45.4833 -73.7000 245° Southwest 130 150 600 -720 Descending Montreal Center